Weather at Zürich Airport

Public forecast

Using degrees Celsius for public forecast. Weather courtesy of forecast.io.

Current aviation weather report (METAR) for Zürich Airport

Retrieved 2022/05/23 07:20 UTC (37 minutes ago):

LSZH 230720Z VRB01KT CAVOK 19/15 Q1007 NOSIG

Aviation forecast (TAF) for Zürich Airport

Retrieved 2022/05/23 06:42 UTC (1 hour ago):

TAF LSZH 230525Z 2306/2412 25005KT CAVOK TX25/2313Z TN16/2306Z TN14/2404Z PROB30 TEMPO 2306/2308 SHRA SCT070TCU BECMG 2308/2311 9999 SCT060TCU PROB40 2309/2313 05007KT TEMPO 2313/2409 SHRA TEMPO 2313/2318 29015G25KT 4000 TSRA SCT040CB PROB30 TEMPO 2314/2317 31018G30KT 2500 TSGR BKN025CB